sensor_id;sensor_type;location;lat;lon;timestamp;temperature;humidity
16532;DHT22;66872;63.142;14.482;2023-03-23T00:01:19;13.40;5.10
16532;DHT22;66872;63.142;14.482;2023-03-23T00:03:49;13.40;5.10
16532;DHT22;66872;63.142;14.482;2023-03-23T00:06:16;13.40;5.20
16532;DHT22;66872;63.142;14.482;2023-03-23T00:08:47;13.40;5.30
16532;DHT22;66872;63.142;14.482;2023-03-23T00:11:18;13.40;5.30
16532;DHT22;66872;63.142;14.482;2023-03-23T00:13:45;13.40;5.20
16532;DHT22;66872;63.142;14.482;2023-03-23T00:16:12;13.40;5.30
16532;DHT22;66872;63.142;14.482;2023-03-23T00:18:51;13.40;5.20
16532;DHT22;66872;63.142;14.482;2023-03-23T00:21:29;13.40;5.30
16532;DHT22;66872;63.142;14.482;2023-03-23T00:24:07;13.40;5.30
16532;DHT22;66872;63.142;14.482;2023-03-23T00:26:35;13.40;5.30
16532;DHT22;66872;63.142;14.482;2023-03-23T00:29:03;13.40;5.30
16532;DHT22;66872;63.142;14.482;2023-03-23T00:31:29;13.40;5.30
16532;DHT22;66872;63.142;14.482;2023-03-23T00:34:02;13.40;5.40
16532;DHT22;66872;63.142;14.482;2023-03-23T00:36:33;13.40;5.40
16532;DHT22;66872;63.142;14.482;2023-03-23T00:39:02;13.40;5.50
16532;DHT22;66872;63.142;14.482;2023-03-23T00:41:28;13.40;5.50
16532;DHT22;66872;63.142;14.482;2023-03-23T00:43:58;13.40;5.50
16532;DHT22;66872;63.142;14.482;2023-03-23T00:46:25;13.40;5.50
16532;DHT22;66872;63.142;14.482;2023-03-23T00:48:51;13.40;5.50
16532;DHT22;66872;63.142;14.482;2023-03-23T00:51:18;13.40;5.50
16532;DHT22;66872;63.142;14.482;2023-03-23T00:53:44;13.40;5.50
16532;DHT22;66872;63.142;14.482;2023-03-23T00:56:11;13.40;5.50
16532;DHT22;66872;63.142;14.482;2023-03-23T00:58:37;13.40;5.50
16532;DHT22;66872;63.142;14.482;2023-03-23T01:01:03;13.40;5.50
16532;DHT22;66872;63.142;14.482;2023-03-23T01:03:30;13.40;5.50
16532;DHT22;66872;63.142;14.482;2023-03-23T01:05:55;13.30;5.50
16532;DHT22;66872;63.142;14.482;2023-03-23T01:08:22;13.40;5.50
16532;DHT22;66872;63.142;14.482;2023-03-23T01:10:49;13.40;5.50
16532;DHT22;66872;63.142;14.482;2023-03-23T01:13:15;13.40;5.50
16532;DHT22;66872;63.142;14.482;2023-03-23T01:15:41;13.40;5.50
16532;DHT22;66872;63.142;14.482;2023-03-23T01:18:08;13.40;5.60
16532;DHT22;66872;63.142;14.482;2023-03-23T01:20:35;13.30;5.50
16532;DHT22;66872;63.142;14.482;2023-03-23T01:23:01;13.40;5.50
16532;DHT22;66872;63.142;14.482;2023-03-23T01:25:32;13.30;5.50
16532;DHT22;66872;63.142;14.482;2023-03-23T01:28:00;13.40;5.50
16532;DHT22;66872;63.142;14.482;2023-03-23T01:30:26;13.40;5.60
16532;DHT22;66872;63.142;14.482;2023-03-23T01:32:52;13.40;5.60
16532;DHT22;66872;63.142;14.482;2023-03-23T01:35:19;13.30;5.60
16532;DHT22;66872;63.142;14.482;2023-03-23T01:37:45;13.40;5.70
16532;DHT22;66872;63.142;14.482;2023-03-23T01:40:11;13.30;5.60
16532;DHT22;66872;63.142;14.482;2023-03-23T01:42:38;13.30;5.60
16532;DHT22;66872;63.142;14.482;2023-03-23T01:47:51;13.30;5.60
16532;DHT22;66872;63.142;14.482;2023-03-23T01:50:19;13.30;5.60
16532;DHT22;66872;63.142;14.482;2023-03-23T01:52:46;13.30;5.60
16532;DHT22;66872;63.142;14.482;2023-03-23T01:55:12;13.30;5.70
16532;DHT22;66872;63.142;14.482;2023-03-23T01:57:38;13.30;5.70
16532;DHT22;66872;63.142;14.482;2023-03-23T02:00:08;13.30;5.70
16532;DHT22;66872;63.142;14.482;2023-03-23T02:02:44;13.30;5.70
16532;DHT22;66872;63.142;14.482;2023-03-23T02:05:17;13.30;5.70
16532;DHT22;66872;63.142;14.482;2023-03-23T02:07:45;13.30;5.80
16532;DHT22;66872;63.142;14.482;2023-03-23T02:10:11;13.20;5.70
16532;DHT22;66872;63.142;14.482;2023-03-23T02:12:37;13.30;5.80
16532;DHT22;66872;63.142;14.482;2023-03-23T02:15:04;13.30;5.80
16532;DHT22;66872;63.142;14.482;2023-03-23T02:17:44;13.20;5.70
16532;DHT22;66872;63.142;14.482;2023-03-23T02:23:26;13.20;5.70
16532;DHT22;66872;63.142;14.482;2023-03-23T02:39:26;13.20;5.90
16532;DHT22;66872;63.142;14.482;2023-03-23T02:41:30;13.10;5.80
16532;DHT22;66872;63.142;14.482;2023-03-23T02:43:57;13.10;5.80
16532;DHT22;66872;63.142;14.482;2023-03-23T02:46:25;13.10;5.80
16532;DHT22;66872;63.142;14.482;2023-03-23T02:48:53;13.10;5.90
16532;DHT22;66872;63.142;14.482;2023-03-23T02:51:22;13.10;5.90
16532;DHT22;66872;63.142;14.482;2023-03-23T02:53:50;13.10;5.90
16532;DHT22;66872;63.142;14.482;2023-03-23T02:56:18;13.10;5.90
16532;DHT22;66872;63.142;14.482;2023-03-23T02:58:44;13.10;5.90
16532;DHT22;66872;63.142;14.482;2023-03-23T03:03:51;13.10;6.50
16532;DHT22;66872;63.142;14.482;2023-03-23T03:09:23;13.10;6.00
16532;DHT22;66872;63.142;14.482;2023-03-23T03:11:54;13.10;6.00
16532;DHT22;66872;63.142;14.482;2023-03-23T03:14:29;13.10;6.00
16532;DHT22;66872;63.142;14.482;2023-03-23T03:17:14;13.10;5.90
16532;DHT22;66872;63.142;14.482;2023-03-23T03:19:44;13.00;6.00
16532;DHT22;66872;63.142;14.482;2023-03-23T03:22:11;13.00;5.90
16532;DHT22;66872;63.142;14.482;2023-03-23T03:24:38;13.00;5.90
16532;DHT22;66872;63.142;14.482;2023-03-23T03:27:14;13.00;5.90
16532;DHT22;66872;63.142;14.482;2023-03-23T03:29:44;13.00;6.00
16532;DHT22;66872;63.142;14.482;2023-03-23T03:32:18;13.00;6.00
16532;DHT22;66872;63.142;14.482;2023-03-23T03:34:45;13.00;6.00
16532;DHT22;66872;63.142;14.482;2023-03-23T03:37:13;13.00;5.90
16532;DHT22;66872;63.142;14.482;2023-03-23T03:39:40;13.00;5.90
16532;DHT22;66872;63.142;14.482;2023-03-23T03:42:06;13.00;5.90
16532;DHT22;66872;63.142;14.482;2023-03-23T03:44:33;13.00;6.00
16532;DHT22;66872;63.142;14.482;2023-03-23T03:46:59;13.00;6.00
16532;DHT22;66872;63.142;14.482;2023-03-23T03:49:25;13.00;6.00
16532;DHT22;66872;63.142;14.482;2023-03-23T03:51:52;13.00;6.00
16532;DHT22;66872;63.142;14.482;2023-03-23T03:54:18;13.00;6.00
16532;DHT22;66872;63.142;14.482;2023-03-23T03:56:44;13.00;5.90
16532;DHT22;66872;63.142;14.482;2023-03-23T03:59:11;13.00;6.00
16532;DHT22;66872;63.142;14.482;2023-03-23T04:01:38;13.00;6.00
16532;DHT22;66872;63.142;14.482;2023-03-23T04:04:04;12.90;6.00
16532;DHT22;66872;63.142;14.482;2023-03-23T04:06:33;12.90;6.00
16532;DHT22;66872;63.142;14.482;2023-03-23T04:09:02;12.90;6.00
16532;DHT22;66872;63.142;14.482;2023-03-23T04:11:31;12.90;6.00
16532;DHT22;66872;63.142;14.482;2023-03-23T04:13:56;12.90;6.00
16532;DHT22;66872;63.142;14.482;2023-03-23T04:16:22;12.90;6.00
16532;DHT22;66872;63.142;14.482;2023-03-23T04:18:48;12.90;6.00
16532;DHT22;66872;63.142;14.482;2023-03-23T04:21:14;12.90;6.10
16532;DHT22;66872;63.142;14.482;2023-03-23T04:23:40;12.90;6.00
16532;DHT22;66872;63.142;14.482;2023-03-23T04:26:06;12.90;6.20
16532;DHT22;66872;63.142;14.482;2023-03-23T04:28:31;12.90;6.20
16532;DHT22;66872;63.142;14.482;2023-03-23T04:31:00;12.90;6.20
16532;DHT22;66872;63.142;14.482;2023-03-23T04:33:28;12.90;6.20
16532;DHT22;66872;63.142;14.482;2023-03-23T04:35:55;12.90;6.00
16532;DHT22;66872;63.142;14.482;2023-03-23T04:38:23;12.90;6.10
16532;DHT22;66872;63.142;14.482;2023-03-23T04:40:51;12.90;6.20
16532;DHT22;66872;63.142;14.482;2023-03-23T04:43:19;12.90;6.10
16532;DHT22;66872;63.142;14.482;2023-03-23T04:45:47;12.80;6.00
16532;DHT22;66872;63.142;14.482;2023-03-23T04:48:12;12.90;6.60
16532;DHT22;66872;63.142;14.482;2023-03-23T04:50:39;12.90;6.10
16532;DHT22;66872;63.142;14.482;2023-03-23T04:53:05;12.90;6.20
16532;DHT22;66872;63.142;14.482;2023-03-23T04:55:32;12.80;6.10
16532;DHT22;66872;63.142;14.482;2023-03-23T04:58:02;12.80;6.10
16532;DHT22;66872;63.142;14.482;2023-03-23T05:00:28;12.80;6.10
16532;DHT22;66872;63.142;14.482;2023-03-23T05:02:54;12.80;6.10
16532;DHT22;66872;63.142;14.482;2023-03-23T05:05:22;12.80;6.00
16532;DHT22;66872;63.142;14.482;2023-03-23T05:07:48;12.80;6.10
16532;DHT22;66872;63.142;14.482;2023-03-23T05:10:15;12.80;6.10
16532;DHT22;66872;63.142;14.482;2023-03-23T05:12:42;12.80;6.10
16532;DHT22;66872;63.142;14.482;2023-03-23T05:15:09;12.80;6.20
16532;DHT22;66872;63.142;14.482;2023-03-23T05:17:36;12.80;6.10
16532;DHT22;66872;63.142;14.482;2023-03-23T05:20:03;12.80;6.10
16532;DHT22;66872;63.142;14.482;2023-03-23T05:22:31;12.80;6.10
16532;DHT22;66872;63.142;14.482;2023-03-23T05:25:00;12.80;6.20
16532;DHT22;66872;63.142;14.482;2023-03-23T05:27:29;12.80;6.10
16532;DHT22;66872;63.142;14.482;2023-03-23T05:29:56;12.80;6.10
16532;DHT22;66872;63.142;14.482;2023-03-23T05:32:24;12.80;6.10
16532;DHT22;66872;63.142;14.482;2023-03-23T05:34:58;12.80;6.10
16532;DHT22;66872;63.142;14.482;2023-03-23T05:37:25;12.80;6.10
16532;DHT22;66872;63.142;14.482;2023-03-23T05:39:52;12.80;6.10
16532;DHT22;66872;63.142;14.482;2023-03-23T05:42:22;12.80;6.10
16532;DHT22;66872;63.142;14.482;2023-03-23T05:44:48;12.80;6.10
16532;DHT22;66872;63.142;14.482;2023-03-23T05:47:14;12.80;6.10
16532;DHT22;66872;63.142;14.482;2023-03-23T05:49:40;12.80;6.00
16532;DHT22;66872;63.142;14.482;2023-03-23T05:52:05;12.80;5.90
16532;DHT22;66872;63.142;14.482;2023-03-23T05:54:31;12.80;5.90
16532;DHT22;66872;63.142;14.482;2023-03-23T05:56:57;12.80;5.90
16532;DHT22;66872;63.142;14.482;2023-03-23T05:59:23;12.80;5.90
16532;DHT22;66872;63.142;14.482;2023-03-23T06:01:48;12.80;5.90
16532;DHT22;66872;63.142;14.482;2023-03-23T06:04:16;12.90;6.00
16532;DHT22;66872;63.142;14.482;2023-03-23T06:06:42;12.90;6.00
16532;DHT22;66872;63.142;14.482;2023-03-23T06:09:09;12.90;5.90
16532;DHT22;66872;63.142;14.482;2023-03-23T06:11:35;12.90;5.90
16532;DHT22;66872;63.142;14.482;2023-03-23T06:14:01;12.90;5.80
16532;DHT22;66872;63.142;14.482;2023-03-23T06:16:27;12.90;5.80
16532;DHT22;66872;63.142;14.482;2023-03-23T06:18:53;12.90;5.80
16532;DHT22;66872;63.142;14.482;2023-03-23T06:21:19;12.90;5.70
16532;DHT22;66872;63.142;14.482;2023-03-23T06:23:45;12.90;5.80
16532;DHT22;66872;63.142;14.482;2023-03-23T06:26:13;13.00;5.80
16532;DHT22;66872;63.142;14.482;2023-03-23T06:28:42;13.00;5.80
16532;DHT22;66872;63.142;14.482;2023-03-23T06:31:08;13.00;5.70
16532;DHT22;66872;63.142;14.482;2023-03-23T06:33:35;12.90;5.70
16532;DHT22;66872;63.142;14.482;2023-03-23T06:36:01;13.00;5.70
16532;DHT22;66872;63.142;14.482;2023-03-23T06:38:27;13.00;5.70
16532;DHT22;66872;63.142;14.482;2023-03-23T06:40:53;13.00;5.70
16532;DHT22;66872;63.142;14.482;2023-03-23T06:43:19;13.00;5.60
16532;DHT22;66872;63.142;14.482;2023-03-23T06:45:46;13.00;5.60
16532;DHT22;66872;63.142;14.482;2023-03-23T06:48:11;13.00;5.70
16532;DHT22;66872;63.142;14.482;2023-03-23T06:50:37;13.00;5.60
16532;DHT22;66872;63.142;14.482;2023-03-23T06:53:03;13.00;5.50
16532;DHT22;66872;63.142;14.482;2023-03-23T06:55:29;13.10;5.60
16532;DHT22;66872;63.142;14.482;2023-03-23T06:57:55;13.10;5.60
16532;DHT22;66872;63.142;14.482;2023-03-23T07:00:20;13.10;5.50
16532;DHT22;66872;63.142;14.482;2023-03-23T07:02:46;13.10;5.50
16532;DHT22;66872;63.142;14.482;2023-03-23T07:05:12;13.10;5.50
16532;DHT22;66872;63.142;14.482;2023-03-23T07:07:38;13.10;5.50
16532;DHT22;66872;63.142;14.482;2023-03-23T07:10:06;13.10;5.40
16532;DHT22;66872;63.142;14.482;2023-03-23T07:12:32;13.10;5.40
16532;DHT22;66872;63.142;14.482;2023-03-23T07:14:58;13.20;5.50
16532;DHT22;66872;63.142;14.482;2023-03-23T07:17:24;13.20;5.40
16532;DHT22;66872;63.142;14.482;2023-03-23T07:19:50;13.20;5.40
16532;DHT22;66872;63.142;14.482;2023-03-23T07:22:16;13.30;5.30
16532;DHT22;66872;63.142;14.482;2023-03-23T07:24:42;13.30;5.30
16532;DHT22;66872;63.142;14.482;2023-03-23T07:27:08;13.30;5.30
16532;DHT22;66872;63.142;14.482;2023-03-23T07:29:34;13.30;5.20
16532;DHT22;66872;63.142;14.482;2023-03-23T07:32:01;13.30;5.10
16532;DHT22;66872;63.142;14.482;2023-03-23T07:34:28;13.40;5.10
16532;DHT22;66872;63.142;14.482;2023-03-23T07:36:53;13.40;5.00
16532;DHT22;66872;63.142;14.482;2023-03-23T07:39:19;13.40;4.90
16532;DHT22;66872;63.142;14.482;2023-03-23T07:41:45;13.40;4.90
16532;DHT22;66872;63.142;14.482;2023-03-23T07:44:11;13.50;4.90
16532;DHT22;66872;63.142;14.482;2023-03-23T07:46:36;13.50;4.90
16532;DHT22;66872;63.142;14.482;2023-03-23T07:49:02;13.50;4.90
16532;DHT22;66872;63.142;14.482;2023-03-23T07:51:31;13.50;4.80
16532;DHT22;66872;63.142;14.482;2023-03-23T07:53:57;13.60;4.80
16532;DHT22;66872;63.142;14.482;2023-03-23T07:56:23;13.60;4.80
16532;DHT22;66872;63.142;14.482;2023-03-23T07:58:49;13.70;4.80
16532;DHT22;66872;63.142;14.482;2023-03-23T08:01:15;13.70;4.70
16532;DHT22;66872;63.142;14.482;2023-03-23T08:03:41;13.80;4.70
16532;DHT22;66872;63.142;14.482;2023-03-23T08:06:08;13.90;4.80
16532;DHT22;66872;63.142;14.482;2023-03-23T08:08:34;14.00;4.60
16532;DHT22;66872;63.142;14.482;2023-03-23T08:11:00;14.10;4.50
16532;DHT22;66872;63.142;14.482;2023-03-23T08:13:26;14.20;4.30
16532;DHT22;66872;63.142;14.482;2023-03-23T08:15:52;14.20;4.10
16532;DHT22;66872;63.142;14.482;2023-03-23T08:18:18;14.30;4.10
16532;DHT22;66872;63.142;14.482;2023-03-23T08:20:44;14.30;3.90
16532;DHT22;66872;63.142;14.482;2023-03-23T08:23:14;14.40;4.00
16532;DHT22;66872;63.142;14.482;2023-03-23T08:25:42;14.40;4.00
16532;DHT22;66872;63.142;14.482;2023-03-23T08:28:08;14.50;3.80
16532;DHT22;66872;63.142;14.482;2023-03-23T08:30:35;14.50;3.70
16532;DHT22;66872;63.142;14.482;2023-03-23T08:33:02;14.60;3.70
16532;DHT22;66872;63.142;14.482;2023-03-23T08:35:28;14.60;3.60
16532;DHT22;66872;63.142;14.482;2023-03-23T08:37:54;14.60;3.50
16532;DHT22;66872;63.142;14.482;2023-03-23T08:40:22;14.70;3.50
16532;DHT22;66872;63.142;14.482;2023-03-23T08:42:50;14.70;3.50
16532;DHT22;66872;63.142;14.482;2023-03-23T08:45:20;14.70;3.40
16532;DHT22;66872;63.142;14.482;2023-03-23T08:47:47;14.70;3.30
16532;DHT22;66872;63.142;14.482;2023-03-23T08:50:19;14.70;3.30
16532;DHT22;66872;63.142;14.482;2023-03-23T08:52:45;14.70;3.30
16532;DHT22;66872;63.142;14.482;2023-03-23T08:55:11;14.70;3.30
16532;DHT22;66872;63.142;14.482;2023-03-23T08:57:38;14.70;3.20
16532;DHT22;66872;63.142;14.482;2023-03-23T09:00:06;14.80;3.30
16532;DHT22;66872;63.142;14.482;2023-03-23T09:02:48;14.80;3.20
16532;DHT22;66872;63.142;14.482;2023-03-23T09:05:15;14.80;3.10
16532;DHT22;66872;63.142;14.482;2023-03-23T09:07:45;14.80;3.10
16532;DHT22;66872;63.142;14.482;2023-03-23T09:10:12;14.80;3.10
16532;DHT22;66872;63.142;14.482;2023-03-23T09:12:39;14.90;3.10
16532;DHT22;66872;63.142;14.482;2023-03-23T09:15:07;14.90;3.10
16532;DHT22;66872;63.142;14.482;2023-03-23T09:17:39;14.90;3.00
16532;DHT22;66872;63.142;14.482;2023-03-23T09:20:07;14.90;2.90
16532;DHT22;66872;63.142;14.482;2023-03-23T09:22:38;14.90;2.90
16532;DHT22;66872;63.142;14.482;2023-03-23T09:25:06;14.90;2.90
16532;DHT22;66872;63.142;14.482;2023-03-23T09:27:33;15.00;3.00
16532;DHT22;66872;63.142;14.482;2023-03-23T09:29:59;15.00;3.00
16532;DHT22;66872;63.142;14.482;2023-03-23T09:32:26;15.00;2.90
16532;DHT22;66872;63.142;14.482;2023-03-23T09:34:52;15.00;2.90
16532;DHT22;66872;63.142;14.482;2023-03-23T09:37:21;15.00;2.90
16532;DHT22;66872;63.142;14.482;2023-03-23T09:39:46;15.00;2.80
16532;DHT22;66872;63.142;14.482;2023-03-23T09:50:25;15.10;2.60
16532;DHT22;66872;63.142;14.482;2023-03-23T09:52:55;15.10;2.60
16532;DHT22;66872;63.142;14.482;2023-03-23T09:55:22;15.10;2.50
16532;DHT22;66872;63.142;14.482;2023-03-23T09:58:10;15.20;2.50
16532;DHT22;66872;63.142;14.482;2023-03-23T10:00:40;15.20;2.50
16532;DHT22;66872;63.142;14.482;2023-03-23T10:03:14;15.20;2.40
16532;DHT22;66872;63.142;14.482;2023-03-23T10:05:49;15.20;2.30
16532;DHT22;66872;63.142;14.482;2023-03-23T10:08:24;15.20;2.40
16532;DHT22;66872;63.142;14.482;2023-03-23T10:16:29;15.30;2.90
16532;DHT22;66872;63.142;14.482;2023-03-23T10:21:35;15.30;2.20
16532;DHT22;66872;63.142;14.482;2023-03-23T10:24:04;15.30;2.20
16532;DHT22;66872;63.142;14.482;2023-03-23T10:26:55;15.40;2.20
16532;DHT22;66872;63.142;14.482;2023-03-23T10:29:29;15.40;2.20
16532;DHT22;66872;63.142;14.482;2023-03-23T10:31:59;15.40;2.00
16532;DHT22;66872;63.142;14.482;2023-03-23T10:34:44;15.50;2.00
16532;DHT22;66872;63.142;14.482;2023-03-23T10:37:21;15.50;1.90
16532;DHT22;66872;63.142;14.482;2023-03-23T10:39:56;15.50;1.80
16532;DHT22;66872;63.142;14.482;2023-03-23T10:42:32;15.60;1.80
16532;DHT22;66872;63.142;14.482;2023-03-23T10:45:20;15.60;1.70
16532;DHT22;66872;63.142;14.482;2023-03-23T10:48:02;15.60;1.70
16532;DHT22;66872;63.142;14.482;2023-03-23T10:50:34;15.60;1.60
16532;DHT22;66872;63.142;14.482;2023-03-23T10:53:01;15.70;1.60
16532;DHT22;66872;63.142;14.482;2023-03-23T10:55:40;15.70;1.60
16532;DHT22;66872;63.142;14.482;2023-03-23T10:58:11;15.70;1.50
16532;DHT22;66872;63.142;14.482;2023-03-23T11:00:45;15.70;1.50
16532;DHT22;66872;63.142;14.482;2023-03-23T11:05:50;15.70;1.40
16532;DHT22;66872;63.142;14.482;2023-03-23T11:08:23;15.70;1.40
16532;DHT22;66872;63.142;14.482;2023-03-23T11:10:53;15.80;1.40
16532;DHT22;66872;63.142;14.482;2023-03-23T11:13:23;15.80;1.40
16532;DHT22;66872;63.142;14.482;2023-03-23T11:15:50;15.80;1.30
16532;DHT22;66872;63.142;14.482;2023-03-23T11:18:23;15.80;1.30
16532;DHT22;66872;63.142;14.482;2023-03-23T11:20:56;15.80;1.30
16532;DHT22;66872;63.142;14.482;2023-03-23T11:23:34;15.80;1.30
16532;DHT22;66872;63.142;14.482;2023-03-23T11:28:56;15.80;1.70
16532;DHT22;66872;63.142;14.482;2023-03-23T11:34:21;15.90;1.30
16532;DHT22;66872;63.142;14.482;2023-03-23T11:36:49;15.90;1.10
16532;DHT22;66872;63.142;14.482;2023-03-23T11:39:30;15.90;1.10
16532;DHT22;66872;63.142;14.482;2023-03-23T11:41:59;15.90;1.10
16532;DHT22;66872;63.142;14.482;2023-03-23T11:44:33;15.90;1.10
16532;DHT22;66872;63.142;14.482;2023-03-23T11:47:17;15.90;1.10
16532;DHT22;66872;63.142;14.482;2023-03-23T11:55:25;15.80;1.00
16532;DHT22;66872;63.142;14.482;2023-03-23T11:57:52;15.80;1.00
16532;DHT22;66872;63.142;14.482;2023-03-23T12:00:21;15.80;1.20
16532;DHT22;66872;63.142;14.482;2023-03-23T12:06:15;15.80;1.20
16532;DHT22;66872;63.142;14.482;2023-03-23T12:17:37;15.80;1.30
16532;DHT22;66872;63.142;14.482;2023-03-23T12:20:27;15.80;1.30
16532;DHT22;66872;63.142;14.482;2023-03-23T12:44:34;15.80;1.20
16532;DHT22;66872;63.142;14.482;2023-03-23T12:52:37;15.80;1.20
16532;DHT22;66872;63.142;14.482;2023-03-23T12:55:27;15.80;1.20
16532;DHT22;66872;63.142;14.482;2023-03-23T12:58:19;15.80;1.20
16532;DHT22;66872;63.142;14.482;2023-03-23T13:01:17;15.80;1.20
16532;DHT22;66872;63.142;14.482;2023-03-23T13:04:01;15.80;1.20
16532;DHT22;66872;63.142;14.482;2023-03-23T13:06:38;15.80;1.30
16532;DHT22;66872;63.142;14.482;2023-03-23T13:11:37;15.80;1.20
16532;DHT22;66872;63.142;14.482;2023-03-23T13:21:45;15.80;1.30
16532;DHT22;66872;63.142;14.482;2023-03-23T13:24:24;15.80;1.40
16532;DHT22;66872;63.142;14.482;2023-03-23T13:26:51;15.70;1.30
16532;DHT22;66872;63.142;14.482;2023-03-23T13:29:21;15.80;1.40
16532;DHT22;66872;63.142;14.482;2023-03-23T13:32:03;15.80;1.30
16532;DHT22;66872;63.142;14.482;2023-03-23T13:34:31;15.70;1.20
16532;DHT22;66872;63.142;14.482;2023-03-23T13:37:06;15.70;1.20
16532;DHT22;66872;63.142;14.482;2023-03-23T13:43:10;15.70;1.30
16532;DHT22;66872;63.142;14.482;2023-03-23T13:45:47;15.70;1.30
16532;DHT22;66872;63.142;14.482;2023-03-23T13:53:24;15.70;1.90
16532;DHT22;66872;63.142;14.482;2023-03-23T13:56:07;15.70;1.40
16532;DHT22;66872;63.142;14.482;2023-03-23T13:59:06;15.70;1.40
16532;DHT22;66872;63.142;14.482;2023-03-23T14:01:35;15.70;1.40
16532;DHT22;66872;63.142;14.482;2023-03-23T14:04:17;15.70;1.50
16532;DHT22;66872;63.142;14.482;2023-03-23T14:06:46;15.70;1.40
16532;DHT22;66872;63.142;14.482;2023-03-23T14:09:36;15.70;1.50
16532;DHT22;66872;63.142;14.482;2023-03-23T14:12:15;15.70;1.50
16532;DHT22;66872;63.142;14.482;2023-03-23T14:14:45;15.70;1.50
16532;DHT22;66872;63.142;14.482;2023-03-23T14:19:48;15.70;1.50
16532;DHT22;66872;63.142;14.482;2023-03-23T14:22:22;15.70;1.40
16532;DHT22;66872;63.142;14.482;2023-03-23T14:24:48;15.80;1.50
16532;DHT22;66872;63.142;14.482;2023-03-23T14:27:21;15.70;1.40
16532;DHT22;66872;63.142;14.482;2023-03-23T14:30:01;15.80;1.50
16532;DHT22;66872;63.142;14.482;2023-03-23T14:32:28;15.80;1.40
16532;DHT22;66872;63.142;14.482;2023-03-23T14:34:56;15.80;1.50
16532;DHT22;66872;63.142;14.482;2023-03-23T14:37:23;15.80;1.50
16532;DHT22;66872;63.142;14.482;2023-03-23T14:39:52;15.80;1.50
16532;DHT22;66872;63.142;14.482;2023-03-23T14:42:26;15.70;1.50
16532;DHT22;66872;63.142;14.482;2023-03-23T14:44:53;15.70;1.60
16532;DHT22;66872;63.142;14.482;2023-03-23T14:47:25;15.70;1.50
16532;DHT22;66872;63.142;14.482;2023-03-23T14:49:57;15.70;1.60
16532;DHT22;66872;63.142;14.482;2023-03-23T14:52:26;15.70;1.70
16532;DHT22;66872;63.142;14.482;2023-03-23T14:54:52;15.70;1.70
16532;DHT22;66872;63.142;14.482;2023-03-23T14:57:25;15.70;1.80
16532;DHT22;66872;63.142;14.482;2023-03-23T14:59:52;15.60;1.80
16532;DHT22;66872;63.142;14.482;2023-03-23T15:02:32;15.60;1.70
16532;DHT22;66872;63.142;14.482;2023-03-23T15:05:04;15.60;1.80
16532;DHT22;66872;63.142;14.482;2023-03-23T15:07:35;15.60;1.90
16532;DHT22;66872;63.142;14.482;2023-03-23T15:10:06;15.60;1.80
16532;DHT22;66872;63.142;14.482;2023-03-23T15:12:32;15.60;1.80
16532;DHT22;66872;63.142;14.482;2023-03-23T15:15:04;15.60;1.90
16532;DHT22;66872;63.142;14.482;2023-03-23T15:17:34;15.60;1.90
16532;DHT22;66872;63.142;14.482;2023-03-23T15:20:19;15.60;1.90
16532;DHT22;66872;63.142;14.482;2023-03-23T15:22:47;15.60;1.90
16532;DHT22;66872;63.142;14.482;2023-03-23T15:28:06;15.60;1.90
16532;DHT22;66872;63.142;14.482;2023-03-23T15:30:37;15.60;1.90
16532;DHT22;66872;63.142;14.482;2023-03-23T15:33:12;15.60;2.00
16532;DHT22;66872;63.142;14.482;2023-03-23T15:35:40;15.60;1.90
16532;DHT22;66872;63.142;14.482;2023-03-23T15:38:32;15.60;1.90
16532;DHT22;66872;63.142;14.482;2023-03-23T15:41:01;15.60;2.00
16532;DHT22;66872;63.142;14.482;2023-03-23T15:43:31;15.60;1.90
16532;DHT22;66872;63.142;14.482;2023-03-23T15:46:16;15.60;2.00
16532;DHT22;66872;63.142;14.482;2023-03-23T15:48:49;15.60;2.00
16532;DHT22;66872;63.142;14.482;2023-03-23T15:51:16;15.60;1.90
16532;DHT22;66872;63.142;14.482;2023-03-23T15:53:43;15.60;2.00
16532;DHT22;66872;63.142;14.482;2023-03-23T15:56:11;15.50;1.90
16532;DHT22;66872;63.142;14.482;2023-03-23T15:58:37;15.50;2.00
16532;DHT22;66872;63.142;14.482;2023-03-23T16:01:11;15.50;2.00
16532;DHT22;66872;63.142;14.482;2023-03-23T16:03:45;15.50;2.00
16532;DHT22;66872;63.142;14.482;2023-03-23T16:06:13;15.50;2.00
16532;DHT22;66872;63.142;14.482;2023-03-23T16:08:39;15.50;2.00
16532;DHT22;66872;63.142;14.482;2023-03-23T16:11:10;15.50;2.00
16532;DHT22;66872;63.142;14.482;2023-03-23T16:13:36;15.40;2.00
16532;DHT22;66872;63.142;14.482;2023-03-23T16:16:02;15.40;2.10
16532;DHT22;66872;63.142;14.482;2023-03-23T16:18:29;15.40;2.20
16532;DHT22;66872;63.142;14.482;2023-03-23T16:20:56;15.40;2.10
16532;DHT22;66872;63.142;14.482;2023-03-23T16:23:22;15.40;2.20
16532;DHT22;66872;63.142;14.482;2023-03-23T16:25:48;15.40;2.20
16532;DHT22;66872;63.142;14.482;2023-03-23T16:28:14;15.30;2.10
16532;DHT22;66872;63.142;14.482;2023-03-23T16:30:41;15.30;2.20
16532;DHT22;66872;63.142;14.482;2023-03-23T16:33:07;15.30;2.20
16532;DHT22;66872;63.142;14.482;2023-03-23T16:35:33;15.30;2.30
16532;DHT22;66872;63.142;14.482;2023-03-23T16:38:00;15.20;2.30
16532;DHT22;66872;63.142;14.482;2023-03-23T16:40:25;15.20;2.30
16532;DHT22;66872;63.142;14.482;2023-03-23T16:42:52;15.20;2.40
16532;DHT22;66872;63.142;14.482;2023-03-23T16:45:18;15.20;2.40
16532;DHT22;66872;63.142;14.482;2023-03-23T16:47:44;15.10;2.30
16532;DHT22;66872;63.142;14.482;2023-03-23T16:50:13;15.10;2.40
16532;DHT22;66872;63.142;14.482;2023-03-23T16:52:40;15.10;2.50
16532;DHT22;66872;63.142;14.482;2023-03-23T16:55:07;15.10;2.50
16532;DHT22;66872;63.142;14.482;2023-03-23T16:57:34;15.00;2.60
16532;DHT22;66872;63.142;14.482;2023-03-23T17:00:03;15.00;2.60
16532;DHT22;66872;63.142;14.482;2023-03-23T17:02:30;15.00;2.60
16532;DHT22;66872;63.142;14.482;2023-03-23T17:04:57;14.90;2.60
16532;DHT22;66872;63.142;14.482;2023-03-23T17:07:23;14.90;2.70
16532;DHT22;66872;63.142;14.482;2023-03-23T17:09:48;14.90;2.80
16532;DHT22;66872;63.142;14.482;2023-03-23T17:12:14;14.80;2.70
16532;DHT22;66872;63.142;14.482;2023-03-23T17:14:40;14.80;2.90
16532;DHT22;66872;63.142;14.482;2023-03-23T17:17:06;14.80;2.90
16532;DHT22;66872;63.142;14.482;2023-03-23T17:19:32;14.70;2.90
16532;DHT22;66872;63.142;14.482;2023-03-23T17:21:58;14.70;3.00
16532;DHT22;66872;63.142;14.482;2023-03-23T17:24:24;14.70;3.10
16532;DHT22;66872;63.142;14.482;2023-03-23T17:26:51;14.70;3.20
16532;DHT22;66872;63.142;14.482;2023-03-23T17:29:17;14.60;3.10
16532;DHT22;66872;63.142;14.482;2023-03-23T17:31:43;14.60;3.30
16532;DHT22;66872;63.142;14.482;2023-03-23T17:34:09;14.60;3.30
16532;DHT22;66872;63.142;14.482;2023-03-23T17:36:35;14.50;3.20
16532;DHT22;66872;63.142;14.482;2023-03-23T17:39:00;14.50;3.20
16532;DHT22;66872;63.142;14.482;2023-03-23T17:41:26;14.50;3.30